sensor_id;sensor_type;location;lat;lon;timestamp;temperature;humidity
22153;DHT22;11242;50.536;12.688;2022-07-22T00:02:21;16.10;99.90
22153;DHT22;11242;50.536;12.688;2022-07-22T00:04:47;16.10;99.90
22153;DHT22;11242;50.536;12.688;2022-07-22T00:07:13;16.00;99.90
22153;DHT22;11242;50.536;12.688;2022-07-22T00:09:39;16.00;99.90
22153;DHT22;11242;50.536;12.688;2022-07-22T00:12:05;16.00;99.90
22153;DHT22;11242;50.536;12.688;2022-07-22T00:14:30;16.00;99.90
22153;DHT22;11242;50.536;12.688;2022-07-22T00:16:56;15.90;99.90
22153;DHT22;11242;50.536;12.688;2022-07-22T00:19:22;15.90;99.90
22153;DHT22;11242;50.536;12.688;2022-07-22T00:21:49;15.90;99.90
22153;DHT22;11242;50.536;12.688;2022-07-22T00:24:15;15.90;99.90
22153;DHT22;11242;50.536;12.688;2022-07-22T00:26:41;15.80;99.90
22153;DHT22;11242;50.536;12.688;2022-07-22T00:29:06;15.90;99.90
22153;DHT22;11242;50.536;12.688;2022-07-22T00:31:32;15.90;99.90
22153;DHT22;11242;50.536;12.688;2022-07-22T00:33:59;15.80;99.90
22153;DHT22;11242;50.536;12.688;2022-07-22T00:36:27;15.80;99.90
22153;DHT22;11242;50.536;12.688;2022-07-22T00:38:53;15.80;99.90
22153;DHT22;11242;50.536;12.688;2022-07-22T00:41:18;15.80;99.90
22153;DHT22;11242;50.536;12.688;2022-07-22T00:44:05;15.70;99.90
22153;DHT22;11242;50.536;12.688;2022-07-22T00:46:32;15.70;99.90
22153;DHT22;11242;50.536;12.688;2022-07-22T00:48:59;15.60;99.90
22153;DHT22;11242;50.536;12.688;2022-07-22T00:51:26;15.50;99.90
22153;DHT22;11242;50.536;12.688;2022-07-22T00:53:52;15.50;99.90
22153;DHT22;11242;50.536;12.688;2022-07-22T00:56:19;15.50;99.90
22153;DHT22;11242;50.536;12.688;2022-07-22T00:58:47;15.50;99.90
22153;DHT22;11242;50.536;12.688;2022-07-22T01:01:13;15.40;99.90
22153;DHT22;11242;50.536;12.688;2022-07-22T01:03:38;15.40;99.90
22153;DHT22;11242;50.536;12.688;2022-07-22T01:06:04;15.30;99.90
22153;DHT22;11242;50.536;12.688;2022-07-22T01:08:32;15.20;99.90
22153;DHT22;11242;50.536;12.688;2022-07-22T01:11:12;15.20;99.90
22153;DHT22;11242;50.536;12.688;2022-07-22T01:13:39;15.10;99.90
22153;DHT22;11242;50.536;12.688;2022-07-22T01:16:06;15.10;99.90
22153;DHT22;11242;50.536;12.688;2022-07-22T01:18:32;15.00;99.90
22153;DHT22;11242;50.536;12.688;2022-07-22T01:20:58;15.00;99.90
22153;DHT22;11242;50.536;12.688;2022-07-22T01:23:24;14.90;99.90
22153;DHT22;11242;50.536;12.688;2022-07-22T01:25:50;14.80;99.90
22153;DHT22;11242;50.536;12.688;2022-07-22T01:28:16;14.70;99.90
22153;DHT22;11242;50.536;12.688;2022-07-22T01:30:42;14.70;99.90
22153;DHT22;11242;50.536;12.688;2022-07-22T01:33:07;14.70;99.90
22153;DHT22;11242;50.536;12.688;2022-07-22T01:35:33;14.70;99.90
22153;DHT22;11242;50.536;12.688;2022-07-22T01:37:58;14.70;99.90
22153;DHT22;11242;50.536;12.688;2022-07-22T01:40:24;14.60;99.90
22153;DHT22;11242;50.536;12.688;2022-07-22T01:42:50;14.60;99.90
22153;DHT22;11242;50.536;12.688;2022-07-22T01:45:15;14.60;99.90
22153;DHT22;11242;50.536;12.688;2022-07-22T01:47:42;14.50;99.90
22153;DHT22;11242;50.536;12.688;2022-07-22T01:50:10;14.60;99.90
22153;DHT22;11242;50.536;12.688;2022-07-22T01:52:36;14.70;99.90
22153;DHT22;11242;50.536;12.688;2022-07-22T01:55:03;14.70;99.90
22153;DHT22;11242;50.536;12.688;2022-07-22T01:57:28;14.70;99.90
22153;DHT22;11242;50.536;12.688;2022-07-22T01:59:54;14.70;99.90
22153;DHT22;11242;50.536;12.688;2022-07-22T02:02:22;14.70;99.90
22153;DHT22;11242;50.536;12.688;2022-07-22T02:04:47;14.70;99.90
22153;DHT22;11242;50.536;12.688;2022-07-22T02:07:13;14.70;99.90
22153;DHT22;11242;50.536;12.688;2022-07-22T02:09:38;14.70;99.90
22153;DHT22;11242;50.536;12.688;2022-07-22T02:12:05;14.70;99.90
22153;DHT22;11242;50.536;12.688;2022-07-22T02:14:36;14.80;99.90
22153;DHT22;11242;50.536;12.688;2022-07-22T02:17:02;14.80;99.90
22153;DHT22;11242;50.536;12.688;2022-07-22T02:19:27;14.70;99.90
22153;DHT22;11242;50.536;12.688;2022-07-22T02:21:53;14.70;99.90
22153;DHT22;11242;50.536;12.688;2022-07-22T02:24:18;14.60;99.90
22153;DHT22;11242;50.536;12.688;2022-07-22T02:26:44;14.50;99.90
22153;DHT22;11242;50.536;12.688;2022-07-22T02:29:12;14.50;99.90
22153;DHT22;11242;50.536;12.688;2022-07-22T02:31:37;14.40;99.90
22153;DHT22;11242;50.536;12.688;2022-07-22T02:34:06;14.50;99.90
22153;DHT22;11242;50.536;12.688;2022-07-22T02:36:32;14.50;99.90
22153;DHT22;11242;50.536;12.688;2022-07-22T02:38:57;14.40;99.90
22153;DHT22;11242;50.536;12.688;2022-07-22T02:41:23;14.40;99.90
22153;DHT22;11242;50.536;12.688;2022-07-22T02:43:52;14.50;99.90
22153;DHT22;11242;50.536;12.688;2022-07-22T02:46:21;14.50;99.90
22153;DHT22;11242;50.536;12.688;2022-07-22T02:48:48;14.50;99.90
22153;DHT22;11242;50.536;12.688;2022-07-22T02:51:16;14.50;99.90
22153;DHT22;11242;50.536;12.688;2022-07-22T02:53:42;14.50;99.90
22153;DHT22;11242;50.536;12.688;2022-07-22T02:56:08;14.40;99.90
22153;DHT22;11242;50.536;12.688;2022-07-22T02:58:34;14.40;99.90
22153;DHT22;11242;50.536;12.688;2022-07-22T03:01:00;14.40;99.90
22153;DHT22;11242;50.536;12.688;2022-07-22T03:03:26;14.30;99.90
22153;DHT22;11242;50.536;12.688;2022-07-22T03:05:52;14.20;99.90
22153;DHT22;11242;50.536;12.688;2022-07-22T03:08:23;14.10;99.90
22153;DHT22;11242;50.536;12.688;2022-07-22T03:10:49;14.00;99.90
22153;DHT22;11242;50.536;12.688;2022-07-22T03:13:15;14.00;99.90
22153;DHT22;11242;50.536;12.688;2022-07-22T03:15:40;13.90;99.90
22153;DHT22;11242;50.536;12.688;2022-07-22T03:18:06;13.90;99.90
22153;DHT22;11242;50.536;12.688;2022-07-22T03:20:31;13.90;99.90
22153;DHT22;11242;50.536;12.688;2022-07-22T03:22:58;13.80;99.90
22153;DHT22;11242;50.536;12.688;2022-07-22T03:25:24;13.80;99.90
22153;DHT22;11242;50.536;12.688;2022-07-22T03:27:50;13.80;99.90
22153;DHT22;11242;50.536;12.688;2022-07-22T03:30:16;13.80;99.90
22153;DHT22;11242;50.536;12.688;2022-07-22T03:32:42;13.80;99.90
22153;DHT22;11242;50.536;12.688;2022-07-22T03:35:13;13.80;99.90
22153;DHT22;11242;50.536;12.688;2022-07-22T03:37:42;13.80;99.90
22153;DHT22;11242;50.536;12.688;2022-07-22T03:40:08;13.80;99.90
22153;DHT22;11242;50.536;12.688;2022-07-22T03:42:34;13.90;99.90
22153;DHT22;11242;50.536;12.688;2022-07-22T03:45:00;13.90;99.90
22153;DHT22;11242;50.536;12.688;2022-07-22T03:47:26;14.00;99.90
22153;DHT22;11242;50.536;12.688;2022-07-22T03:49:52;14.00;99.90
22153;DHT22;11242;50.536;12.688;2022-07-22T03:52:24;14.00;99.90
22153;DHT22;11242;50.536;12.688;2022-07-22T03:54:50;14.20;99.90
22153;DHT22;11242;50.536;12.688;2022-07-22T03:57:16;14.30;99.90
22153;DHT22;11242;50.536;12.688;2022-07-22T03:59:41;14.30;99.90
22153;DHT22;11242;50.536;12.688;2022-07-22T04:02:07;14.40;99.90
22153;DHT22;11242;50.536;12.688;2022-07-22T04:04:32;14.40;99.90
22153;DHT22;11242;50.536;12.688;2022-07-22T04:06:58;14.40;99.90
22153;DHT22;11242;50.536;12.688;2022-07-22T04:09:30;14.50;99.90
22153;DHT22;11242;50.536;12.688;2022-07-22T04:11:56;14.60;99.90
22153;DHT22;11242;50.536;12.688;2022-07-22T04:14:24;14.70;99.90
22153;DHT22;11242;50.536;12.688;2022-07-22T04:16:49;14.80;99.90
22153;DHT22;11242;50.536;12.688;2022-07-22T04:19:15;14.90;99.90
22153;DHT22;11242;50.536;12.688;2022-07-22T04:21:52;14.90;99.90
22153;DHT22;11242;50.536;12.688;2022-07-22T04:24:20;14.90;99.90
22153;DHT22;11242;50.536;12.688;2022-07-22T04:26:46;14.80;99.90
22153;DHT22;11242;50.536;12.688;2022-07-22T04:29:11;14.90;99.90
22153;DHT22;11242;50.536;12.688;2022-07-22T04:31:38;15.10;99.90
22153;DHT22;11242;50.536;12.688;2022-07-22T04:34:09;15.40;99.90
22153;DHT22;11242;50.536;12.688;2022-07-22T04:36:34;16.10;99.90
22153;DHT22;11242;50.536;12.688;2022-07-22T04:39:01;17.10;99.90
22153;DHT22;11242;50.536;12.688;2022-07-22T04:41:26;18.20;99.90
22153;DHT22;11242;50.536;12.688;2022-07-22T04:43:52;19.10;99.90
22153;DHT22;11242;50.536;12.688;2022-07-22T04:46:21;19.60;99.90
22153;DHT22;11242;50.536;12.688;2022-07-22T04:48:47;19.90;99.90
22153;DHT22;11242;50.536;12.688;2022-07-22T04:51:12;20.00;99.90
22153;DHT22;11242;50.536;12.688;2022-07-22T04:53:39;20.20;99.90
22153;DHT22;11242;50.536;12.688;2022-07-22T04:56:04;20.50;99.90
22153;DHT22;11242;50.536;12.688;2022-07-22T04:58:30;20.70;99.90
22153;DHT22;11242;50.536;12.688;2022-07-22T05:00:57;21.40;99.90
22153;DHT22;11242;50.536;12.688;2022-07-22T05:03:22;21.60;99.90
22153;DHT22;11242;50.536;12.688;2022-07-22T05:05:50;22.20;99.90
22153;DHT22;11242;50.536;12.688;2022-07-22T05:08:23;22.60;99.90
22153;DHT22;11242;50.536;12.688;2022-07-22T05:10:49;22.80;99.90
22153;DHT22;11242;50.536;12.688;2022-07-22T05:13:15;23.20;99.90
22153;DHT22;11242;50.536;12.688;2022-07-22T05:15:41;23.80;99.90
22153;DHT22;11242;50.536;12.688;2022-07-22T05:18:06;24.30;99.90
22153;DHT22;11242;50.536;12.688;2022-07-22T05:20:32;25.80;99.90
22153;DHT22;11242;50.536;12.688;2022-07-22T05:22:58;27.30;98.20
22153;DHT22;11242;50.536;12.688;2022-07-22T05:25:26;27.80;93.50
22153;DHT22;11242;50.536;12.688;2022-07-22T05:27:54;27.80;91.40
22153;DHT22;11242;50.536;12.688;2022-07-22T05:30:40;27.60;91.40
22153;DHT22;11242;50.536;12.688;2022-07-22T05:33:06;27.60;91.30
22153;DHT22;11242;50.536;12.688;2022-07-22T05:35:51;27.80;89.90
22153;DHT22;11242;50.536;12.688;2022-07-22T05:38:18;28.10;88.90
22153;DHT22;11242;50.536;12.688;2022-07-22T05:40:44;28.40;86.50
22153;DHT22;11242;50.536;12.688;2022-07-22T05:43:10;29.00;83.80
22153;DHT22;11242;50.536;12.688;2022-07-22T05:45:35;29.90;77.00
22153;DHT22;11242;50.536;12.688;2022-07-22T05:48:01;29.90;75.60
22153;DHT22;11242;50.536;12.688;2022-07-22T05:50:28;30.80;73.10
22153;DHT22;11242;50.536;12.688;2022-07-22T05:52:54;32.60;64.70
22153;DHT22;11242;50.536;12.688;2022-07-22T05:55:21;32.90;60.90
22153;DHT22;11242;50.536;12.688;2022-07-22T05:57:47;32.30;58.90
22153;DHT22;11242;50.536;12.688;2022-07-22T06:00:12;33.40;56.90
22153;DHT22;11242;50.536;12.688;2022-07-22T06:02:42;33.80;53.70
22153;DHT22;11242;50.536;12.688;2022-07-22T06:05:12;33.30;53.70
22153;DHT22;11242;50.536;12.688;2022-07-22T06:07:37;33.20;53.30
22153;DHT22;11242;50.536;12.688;2022-07-22T06:10:03;31.80;54.40
22153;DHT22;11242;50.536;12.688;2022-07-22T06:12:32;31.30;55.50
22153;DHT22;11242;50.536;12.688;2022-07-22T06:14:57;31.00;56.60
22153;DHT22;11242;50.536;12.688;2022-07-22T06:17:23;31.10;56.30
22153;DHT22;11242;50.536;12.688;2022-07-22T06:19:48;31.30;56.00
22153;DHT22;11242;50.536;12.688;2022-07-22T06:22:14;31.20;55.70
22153;DHT22;11242;50.536;12.688;2022-07-22T06:24:43;31.30;55.80
22153;DHT22;11242;50.536;12.688;2022-07-22T06:27:09;31.50;55.50
22153;DHT22;11242;50.536;12.688;2022-07-22T06:29:35;31.80;54.00
22153;DHT22;11242;50.536;12.688;2022-07-22T06:32:01;31.70;54.30
22153;DHT22;11242;50.536;12.688;2022-07-22T06:34:27;31.50;53.90
22153;DHT22;11242;50.536;12.688;2022-07-22T06:37:03;31.40;54.20
22153;DHT22;11242;50.536;12.688;2022-07-22T06:39:29;31.80;54.70
22153;DHT22;11242;50.536;12.688;2022-07-22T06:42:15;33.00;52.90
22153;DHT22;11242;50.536;12.688;2022-07-22T06:44:52;32.60;52.70
22153;DHT22;11242;50.536;12.688;2022-07-22T06:47:46;32.60;52.00
22153;DHT22;11242;50.536;12.688;2022-07-22T06:50:14;32.70;51.80
22153;DHT22;11242;50.536;12.688;2022-07-22T06:52:40;33.40;50.90
22153;DHT22;11242;50.536;12.688;2022-07-22T06:55:07;34.00;50.90
22153;DHT22;11242;50.536;12.688;2022-07-22T06:57:36;34.70;50.00
22153;DHT22;11242;50.536;12.688;2022-07-22T07:00:04;34.40;49.00
22153;DHT22;11242;50.536;12.688;2022-07-22T07:02:32;33.60;50.80
22153;DHT22;11242;50.536;12.688;2022-07-22T07:05:00;34.10;49.30
22153;DHT22;11242;50.536;12.688;2022-07-22T07:07:26;34.20;48.90
22153;DHT22;11242;50.536;12.688;2022-07-22T07:09:57;33.70;49.90
22153;DHT22;11242;50.536;12.688;2022-07-22T07:12:34;33.60;49.40
22153;DHT22;11242;50.536;12.688;2022-07-22T07:15:17;33.80;49.90
22153;DHT22;11242;50.536;12.688;2022-07-22T07:17:43;33.10;50.40
22153;DHT22;11242;50.536;12.688;2022-07-22T07:20:13;32.50;51.10
22153;DHT22;11242;50.536;12.688;2022-07-22T07:22:39;32.90;51.80
22153;DHT22;11242;50.536;12.688;2022-07-22T07:25:07;33.70;50.40
22153;DHT22;11242;50.536;12.688;2022-07-22T07:27:34;33.70;50.70
22153;DHT22;11242;50.536;12.688;2022-07-22T07:30:00;34.50;48.70
22153;DHT22;11242;50.536;12.688;2022-07-22T07:32:26;33.70;49.50
22153;DHT22;11242;50.536;12.688;2022-07-22T07:34:52;34.00;49.50
22153;DHT22;11242;50.536;12.688;2022-07-22T07:37:17;33.80;49.50
22153;DHT22;11242;50.536;12.688;2022-07-22T07:39:43;33.30;50.50
22153;DHT22;11242;50.536;12.688;2022-07-22T07:42:09;33.40;50.70
22153;DHT22;11242;50.536;12.688;2022-07-22T07:44:34;33.70;50.70
22153;DHT22;11242;50.536;12.688;2022-07-22T07:47:01;34.30;49.20
22153;DHT22;11242;50.536;12.688;2022-07-22T07:49:27;34.90;48.10
22153;DHT22;11242;50.536;12.688;2022-07-22T07:51:53;35.30;46.90
22153;DHT22;11242;50.536;12.688;2022-07-22T07:54:19;35.70;47.40
22153;DHT22;11242;50.536;12.688;2022-07-22T07:56:45;35.50;47.50
22153;DHT22;11242;50.536;12.688;2022-07-22T07:59:12;35.50;47.00
22153;DHT22;11242;50.536;12.688;2022-07-22T08:01:38;35.20;47.50
22153;DHT22;11242;50.536;12.688;2022-07-22T08:04:04;34.50;46.80
22153;DHT22;11242;50.536;12.688;2022-07-22T08:06:30;34.20;49.10
22153;DHT22;11242;50.536;12.688;2022-07-22T08:08:56;34.20;48.50
22153;DHT22;11242;50.536;12.688;2022-07-22T08:11:30;34.90;47.10
22153;DHT22;11242;50.536;12.688;2022-07-22T08:14:05;34.10;47.30
22153;DHT22;11242;50.536;12.688;2022-07-22T08:16:43;33.80;48.00
22153;DHT22;11242;50.536;12.688;2022-07-22T08:19:08;33.10;50.40
22153;DHT22;11242;50.536;12.688;2022-07-22T08:21:34;32.90;50.10
22153;DHT22;11242;50.536;12.688;2022-07-22T08:24:13;33.90;49.10
22153;DHT22;11242;50.536;12.688;2022-07-22T08:26:39;34.80;47.30
22153;DHT22;11242;50.536;12.688;2022-07-22T08:29:05;33.80;48.40
22153;DHT22;11242;50.536;12.688;2022-07-22T08:31:33;33.90;48.60
22153;DHT22;11242;50.536;12.688;2022-07-22T08:34:03;34.80;47.80
22153;DHT22;11242;50.536;12.688;2022-07-22T08:36:30;35.30;47.60
22153;DHT22;11242;50.536;12.688;2022-07-22T08:38:56;35.10;47.50
22153;DHT22;11242;50.536;12.688;2022-07-22T08:41:23;34.40;47.30
22153;DHT22;11242;50.536;12.688;2022-07-22T08:43:49;33.20;49.20
22153;DHT22;11242;50.536;12.688;2022-07-22T08:46:15;32.80;50.50
22153;DHT22;11242;50.536;12.688;2022-07-22T08:49:00;32.90;50.50
22153;DHT22;11242;50.536;12.688;2022-07-22T08:51:48;32.50;50.90
22153;DHT22;11242;50.536;12.688;2022-07-22T08:54:25;32.80;50.30
22153;DHT22;11242;50.536;12.688;2022-07-22T08:56:52;33.00;50.40
22153;DHT22;11242;50.536;12.688;2022-07-22T08:59:19;33.40;49.30
22153;DHT22;11242;50.536;12.688;2022-07-22T09:02:05;33.00;49.80
22153;DHT22;11242;50.536;12.688;2022-07-22T09:04:53;33.00;49.60
22153;DHT22;11242;50.536;12.688;2022-07-22T09:07:29;33.10;49.80
22153;DHT22;11242;50.536;12.688;2022-07-22T09:10:00;33.60;48.60
22153;DHT22;11242;50.536;12.688;2022-07-22T09:12:55;34.40;47.90
22153;DHT22;11242;50.536;12.688;2022-07-22T09:15:49;35.40;46.30
22153;DHT22;11242;50.536;12.688;2022-07-22T09:18:47;35.00;45.60
22153;DHT22;11242;50.536;12.688;2022-07-22T09:21:42;35.90;45.20
22153;DHT22;11242;50.536;12.688;2022-07-22T09:24:31;35.80;44.90
22153;DHT22;11242;50.536;12.688;2022-07-22T09:27:24;35.30;45.40
22153;DHT22;11242;50.536;12.688;2022-07-22T09:30:19;33.60;48.30
22153;DHT22;11242;50.536;12.688;2022-07-22T09:32:53;32.90;48.70
22153;DHT22;11242;50.536;12.688;2022-07-22T09:36:02;33.40;47.90
22153;DHT22;11242;50.536;12.688;2022-07-22T09:38:29;32.70;49.50
22153;DHT22;11242;50.536;12.688;2022-07-22T09:40:57;31.70;48.80
22153;DHT22;11242;50.536;12.688;2022-07-22T09:43:24;30.40;50.80
22153;DHT22;11242;50.536;12.688;2022-07-22T09:45:56;29.00;54.00
22153;DHT22;11242;50.536;12.688;2022-07-22T09:48:36;28.40;55.90
22153;DHT22;11242;50.536;12.688;2022-07-22T09:51:22;27.90;57.90
22153;DHT22;11242;50.536;12.688;2022-07-22T09:54:09;27.50;58.10
22153;DHT22;11242;50.536;12.688;2022-07-22T09:56:35;27.10;58.50
22153;DHT22;11242;50.536;12.688;2022-07-22T09:59:02;26.90;59.20
22153;DHT22;11242;50.536;12.688;2022-07-22T10:01:33;27.00;59.80
22153;DHT22;11242;50.536;12.688;2022-07-22T10:03:59;26.90;60.50
22153;DHT22;11242;50.536;12.688;2022-07-22T10:06:26;26.90;60.60
22153;DHT22;11242;50.536;12.688;2022-07-22T10:08:53;26.60;59.70
22153;DHT22;11242;50.536;12.688;2022-07-22T10:11:19;26.80;60.80
22153;DHT22;11242;50.536;12.688;2022-07-22T10:13:45;27.10;60.20
22153;DHT22;11242;50.536;12.688;2022-07-22T10:16:12;27.30;59.40
22153;DHT22;11242;50.536;12.688;2022-07-22T10:18:39;27.20;59.80
22153;DHT22;11242;50.536;12.688;2022-07-22T10:21:10;27.00;59.60
22153;DHT22;11242;50.536;12.688;2022-07-22T10:23:37;26.80;59.90
22153;DHT22;11242;50.536;12.688;2022-07-22T10:26:51;26.90;60.70
22153;DHT22;11242;50.536;12.688;2022-07-22T10:29:30;27.00;59.80
22153;DHT22;11242;50.536;12.688;2022-07-22T10:34:41;27.00;59.80
22153;DHT22;11242;50.536;12.688;2022-07-22T10:40:28;26.80;60.30
22153;DHT22;11242;50.536;12.688;2022-07-22T10:45:41;26.60;60.70
22153;DHT22;11242;50.536;12.688;2022-07-22T10:48:10;26.40;60.80
22153;DHT22;11242;50.536;12.688;2022-07-22T10:53:04;26.60;60.00
22153;DHT22;11242;50.536;12.688;2022-07-22T10:55:30;26.60;60.10
22153;DHT22;11242;50.536;12.688;2022-07-22T10:57:55;26.90;60.50
22153;DHT22;11242;50.536;12.688;2022-07-22T11:00:21;27.30;59.20
22153;DHT22;11242;50.536;12.688;2022-07-22T11:02:47;27.70;58.40
22153;DHT22;11242;50.536;12.688;2022-07-22T11:05:13;27.40;58.20
22153;DHT22;11242;50.536;12.688;2022-07-22T11:07:43;27.10;58.90
22153;DHT22;11242;50.536;12.688;2022-07-22T11:10:15;27.00;58.90
22153;DHT22;11242;50.536;12.688;2022-07-22T11:12:41;26.80;59.70
22153;DHT22;11242;50.536;12.688;2022-07-22T11:15:08;27.00;59.90
22153;DHT22;11242;50.536;12.688;2022-07-22T11:17:34;27.20;58.70
22153;DHT22;11242;50.536;12.688;2022-07-22T11:20:02;27.10;58.70
22153;DHT22;11242;50.536;12.688;2022-07-22T11:22:29;26.70;59.40
22153;DHT22;11242;50.536;12.688;2022-07-22T11:24:54;26.50;59.60
22153;DHT22;11242;50.536;12.688;2022-07-22T11:27:21;26.70;59.50
22153;DHT22;11242;50.536;12.688;2022-07-22T11:29:52;26.80;60.60
22153;DHT22;11242;50.536;12.688;2022-07-22T11:32:23;26.90;59.20
22153;DHT22;11242;50.536;12.688;2022-07-22T11:34:49;26.90;59.30
22153;DHT22;11242;50.536;12.688;2022-07-22T11:37:18;27.10;59.90
22153;DHT22;11242;50.536;12.688;2022-07-22T11:39:44;27.20;59.10
22153;DHT22;11242;50.536;12.688;2022-07-22T11:42:09;27.20;58.80
22153;DHT22;11242;50.536;12.688;2022-07-22T11:44:37;27.00;59.10
22153;DHT22;11242;50.536;12.688;2022-07-22T11:47:04;27.00;59.10
22153;DHT22;11242;50.536;12.688;2022-07-22T11:49:32;26.90;59.30
22153;DHT22;11242;50.536;12.688;2022-07-22T11:51:59;27.10;59.00
22153;DHT22;11242;50.536;12.688;2022-07-22T11:54:26;27.10;58.30
22153;DHT22;11242;50.536;12.688;2022-07-22T11:56:51;27.00;58.90
22153;DHT22;11242;50.536;12.688;2022-07-22T11:59:17;27.00;59.20
22153;DHT22;11242;50.536;12.688;2022-07-22T12:01:44;27.00;58.50
22153;DHT22;11242;50.536;12.688;2022-07-22T12:04:13;27.10;58.90
22153;DHT22;11242;50.536;12.688;2022-07-22T12:06:41;27.50;59.20
22153;DHT22;11242;50.536;12.688;2022-07-22T12:09:10;27.60;59.00
22153;DHT22;11242;50.536;12.688;2022-07-22T12:11:41;27.70;58.00
22153;DHT22;11242;50.536;12.688;2022-07-22T12:14:10;27.60;57.80
22153;DHT22;11242;50.536;12.688;2022-07-22T12:16:36;27.90;57.70
22153;DHT22;11242;50.536;12.688;2022-07-22T12:19:10;27.70;57.80
22153;DHT22;11242;50.536;12.688;2022-07-22T12:22:02;27.70;57.20
22153;DHT22;11242;50.536;12.688;2022-07-22T12:24:36;27.90;56.60
22153;DHT22;11242;50.536;12.688;2022-07-22T12:27:09;28.00;56.70
22153;DHT22;11242;50.536;12.688;2022-07-22T12:32:06;28.00;56.70
22153;DHT22;11242;50.536;12.688;2022-07-22T12:34:40;27.90;56.00
22153;DHT22;11242;50.536;12.688;2022-07-22T12:37:29;27.90;56.70
22153;DHT22;11242;50.536;12.688;2022-07-22T12:42:33;27.80;56.80
22153;DHT22;11242;50.536;12.688;2022-07-22T12:47:49;28.10;55.60
22153;DHT22;11242;50.536;12.688;2022-07-22T12:50:34;28.10;55.40
22153;DHT22;11242;50.536;12.688;2022-07-22T12:53:07;28.10;56.20
22153;DHT22;11242;50.536;12.688;2022-07-22T12:55:35;28.30;55.80
22153;DHT22;11242;50.536;12.688;2022-07-22T12:58:02;28.20;55.30
22153;DHT22;11242;50.536;12.688;2022-07-22T13:00:32;28.00;56.00
22153;DHT22;11242;50.536;12.688;2022-07-22T13:02:58;28.10;55.90
22153;DHT22;11242;50.536;12.688;2022-07-22T13:05:26;28.20;55.60
22153;DHT22;11242;50.536;12.688;2022-07-22T13:07:52;27.90;55.00
22153;DHT22;11242;50.536;12.688;2022-07-22T13:10:22;27.80;55.10
22153;DHT22;11242;50.536;12.688;2022-07-22T13:12:49;27.80;55.40
22153;DHT22;11242;50.536;12.688;2022-07-22T13:15:15;28.00;55.10
22153;DHT22;11242;50.536;12.688;2022-07-22T13:17:41;28.20;55.20
22153;DHT22;11242;50.536;12.688;2022-07-22T13:20:08;28.50;54.30
22153;DHT22;11242;50.536;12.688;2022-07-22T13:22:34;28.50;54.70
22153;DHT22;11242;50.536;12.688;2022-07-22T13:25:00;28.40;54.80
22153;DHT22;11242;50.536;12.688;2022-07-22T13:27:26;28.30;54.80
22153;DHT22;11242;50.536;12.688;2022-07-22T13:29:51;28.40;55.30
22153;DHT22;11242;50.536;12.688;2022-07-22T13:32:17;28.50;54.90
22153;DHT22;11242;50.536;12.688;2022-07-22T13:34:43;28.50;55.10
22153;DHT22;11242;50.536;12.688;2022-07-22T13:37:08;28.90;54.60
22153;DHT22;11242;50.536;12.688;2022-07-22T13:39:34;29.00;53.80
22153;DHT22;11242;50.536;12.688;2022-07-22T13:41:59;29.10;54.50
22153;DHT22;11242;50.536;12.688;2022-07-22T13:44:25;29.00;54.00
22153;DHT22;11242;50.536;12.688;2022-07-22T13:46:50;28.90;54.50
22153;DHT22;11242;50.536;12.688;2022-07-22T13:49:16;28.80;55.00
22153;DHT22;11242;50.536;12.688;2022-07-22T13:51:41;28.60;54.60
22153;DHT22;11242;50.536;12.688;2022-07-22T13:54:07;28.40;55.20
22153;DHT22;11242;50.536;12.688;2022-07-22T13:56:33;28.40;55.40
22153;DHT22;11242;50.536;12.688;2022-07-22T13:58:59;28.40;55.60
22153;DHT22;11242;50.536;12.688;2022-07-22T14:01:25;28.40;55.90
22153;DHT22;11242;50.536;12.688;2022-07-22T14:03:51;28.30;55.30
22153;DHT22;11242;50.536;12.688;2022-07-22T14:06:16;28.50;54.90
22153;DHT22;11242;50.536;12.688;2022-07-22T14:08:42;28.50;55.30
22153;DHT22;11242;50.536;12.688;2022-07-22T14:11:08;28.60;54.50
22153;DHT22;11242;50.536;12.688;2022-07-22T14:13:34;28.60;54.30
22153;DHT22;11242;50.536;12.688;2022-07-22T14:15:59;28.60;55.20
22153;DHT22;11242;50.536;12.688;2022-07-22T14:18:45;28.50;54.70
22153;DHT22;11242;50.536;12.688;2022-07-22T14:21:10;28.60;54.70
22153;DHT22;11242;50.536;12.688;2022-07-22T14:23:36;28.70;55.00
22153;DHT22;11242;50.536;12.688;2022-07-22T14:26:01;28.50;54.60
22153;DHT22;11242;50.536;12.688;2022-07-22T14:28:27;28.50;54.70
22153;DHT22;11242;50.536;12.688;2022-07-22T14:30:52;28.30;54.60
22153;DHT22;11242;50.536;12.688;2022-07-22T14:33:18;28.30;54.80
22153;DHT22;11242;50.536;12.688;2022-07-22T14:35:43;28.30;55.20
22153;DHT22;11242;50.536;12.688;2022-07-22T14:38:09;28.40;55.10
22153;DHT22;11242;50.536;12.688;2022-07-22T14:40:34;28.30;54.90
22153;DHT22;11242;50.536;12.688;2022-07-22T14:43:00;28.20;54.70
22153;DHT22;11242;50.536;12.688;2022-07-22T14:45:25;28.20;55.40
22153;DHT22;11242;50.536;12.688;2022-07-22T14:47:51;28.30;54.60
22153;DHT22;11242;50.536;12.688;2022-07-22T14:50:16;28.30;54.50
22153;DHT22;11242;50.536;12.688;2022-07-22T14:52:42;28.30;54.20
22153;DHT22;11242;50.536;12.688;2022-07-22T14:55:08;28.20;55.00
22153;DHT22;11242;50.536;12.688;2022-07-22T14:57:33;28.40;55.50
22153;DHT22;11242;50.536;12.688;2022-07-22T14:59:59;28.50;54.80
22153;DHT22;11242;50.536;12.688;2022-07-22T15:02:24;28.40;54.50
22153;DHT22;11242;50.536;12.688;2022-07-22T15:04:50;28.40;55.00
22153;DHT22;11242;50.536;12.688;2022-07-22T15:07:16;28.50;54.60
22153;DHT22;11242;50.536;12.688;2022-07-22T15:09:41;28.40;54.30
22153;DHT22;11242;50.536;12.688;2022-07-22T15:12:07;28.30;54.90
22153;DHT22;11242;50.536;12.688;2022-07-22T15:14:32;28.30;54.70
22153;DHT22;11242;50.536;12.688;2022-07-22T15:16:58;28.20;54.60
22153;DHT22;11242;50.536;12.688;2022-07-22T15:19:24;28.30;54.80
22153;DHT22;11242;50.536;12.688;2022-07-22T15:21:49;28.40;55.20
22153;DHT22;11242;50.536;12.688;2022-07-22T15:24:15;28.60;54.60
22153;DHT22;11242;50.536;12.688;2022-07-22T15:26:40;28.40;54.00
22153;DHT22;11242;50.536;12.688;2022-07-22T15:29:06;28.50;54.70
22153;DHT22;11242;50.536;12.688;2022-07-22T15:31:31;28.40;54.30
22153;DHT22;11242;50.536;12.688;2022-07-22T15:33:57;28.30;54.30
22153;DHT22;11242;50.536;12.688;2022-07-22T15:36:23;28.30;54.50
22153;DHT22;11242;50.536;12.688;2022-07-22T15:38:50;28.40;54.60
22153;DHT22;11242;50.536;12.688;2022-07-22T15:41:16;28.50;54.70
22153;DHT22;11242;50.536;12.688;2022-07-22T15:43:41;28.40;54.30